Time;durP1;ratioP1;P1;durP2;ratioP2;P2;SDS_P1;SDS_P2;PMS_P1;PMS_P2;Temp;Humidity;BMP_temperature;BMP_pressure;BME280_temperature;BME280_humidity;BME280_pressure;Samples;Min_cycle;Max_cycle;Signal;HPM_P1;HPM_P2
2021/06/12 00:01:09;;;;;;;12.48;6.78;;;;;;;;;;5042746;28;20462;-84
2021/06/12 00:03:36;;;;;;;15.35;7.15;;;;;;;;;;5067327;28;20028;-84
2021/06/12 00:06:02;;;;;;;14.77;7.68;;;;;;;;;;5064036;28;20032;-84
2021/06/12 00:08:27;;;;;;;15.93;7.38;;;;;;;;;;5049040;28;20028;-84
2021/06/12 00:10:53;;;;;;;13.07;6.77;;;;;;;;;;5048817;28;20074;-84
2021/06/12 00:13:18;;;;;;;11.05;7.07;;;;;;;;;;5049711;28;20286;-84
2021/06/12 00:15:43;;;;;;;11.73;7.37;;;;;;;;;;5050223;28;20020;-84
2021/06/12 00:18:09;;;;;;;12.93;7.57;;;;;;;;;;5061185;28;20641;-84
2021/06/12 00:20:37;;;;;;;14.82;7.28;;;;;;;;;;5044658;28;20016;-84
2021/06/12 00:23:02;;;;;;;11.15;6.97;;;;;;;;;;5067537;28;20028;-83
2021/06/12 00:25:29;;;;;;;11.25;6.57;;;;;;;;;;5067609;28;20024;-83
2021/06/12 00:27:55;;;;;;;12.80;7.25;;;;;;;;;;5066200;28;20021;-83
2021/06/12 00:30:21;;;;;;;10.55;6.53;;;;;;;;;;5049190;28;20050;-83
2021/06/12 00:32:46;;;;;;;13.02;6.90;;;;;;;;;;5048509;28;20028;-84
2021/06/12 00:35:11;;;;;;;13.63;6.47;;;;;;;;;;5051728;28;20012;-84
2021/06/12 00:37:37;;;;;;;12.80;6.47;;;;;;;;;;5052874;28;20123;-84
2021/06/12 00:40:04;;;;;;;11.02;6.13;;;;;;;;;;5069873;28;20037;-84
2021/06/12 00:42:29;;;;;;;12.68;6.63;;;;;;;;;;5037773;28;20028;-84
2021/06/12 00:44:54;;;;;;;11.30;6.30;;;;;;;;;;5070272;28;20067;-84
2021/06/12 00:47:19;;;;;;;11.83;5.80;;;;;;;;;;5052603;28;20482;-84
2021/06/12 00:49:45;;;;;;;9.50;5.53;;;;;;;;;;5051531;28;20286;-84
2021/06/12 00:52:10;;;;;;;11.53;6.10;;;;;;;;;;5070815;28;20288;-84
2021/06/12 00:54:36;;;;;;;9.68;5.45;;;;;;;;;;5049870;28;20278;-84
2021/06/12 00:57:02;;;;;;;17.33;6.22;;;;;;;;;;5069841;28;20031;-84
2021/06/12 00:59:27;;;;;;;13.68;6.88;;;;;;;;;;5052440;28;20501;-84
2021/06/12 01:01:52;;;;;;;8.65;5.72;;;;;;;;;;5070562;28;20061;-84
2021/06/12 01:04:17;;;;;;;11.10;5.90;;;;;;;;;;5049301;28;20119;-84
2021/06/12 01:06:43;;;;;;;10.38;5.70;;;;;;;;;;5043852;28;20044;-84
2021/06/12 01:09:08;;;;;;;12.23;6.50;;;;;;;;;;5051466;28;20101;-84
2021/06/12 01:11:37;;;;;;;12.60;6.65;;;;;;;;;;5069434;28;20028;-84
2021/06/12 01:14:09;;;;;;;9.98;5.43;;;;;;;;;;5052038;28;20036;-84
2021/06/12 01:16:38;;;;;;;9.50;5.75;;;;;;;;;;5051037;28;20027;-84
2021/06/12 01:19:22;;;;;;;13.35;6.63;;;;;;;;;;5051537;28;20024;-84
2021/06/12 01:21:51;;;;;;;19.92;6.85;;;;;;;;;;5051944;28;20115;-84
2021/06/12 01:24:35;;;;;;;8.93;5.68;;;;;;;;;;5051433;28;20363;-84
2021/06/12 01:27:19;;;;;;;11.88;5.78;;;;;;;;;;5050849;28;20029;-84
2021/06/12 01:30:01;;;;;;;14.30;5.75;;;;;;;;;;5051482;28;20051;-84
2021/06/12 01:32:26;;;;;;;8.98;5.30;;;;;;;;;;5063012;28;20097;-84
2021/06/12 01:34:51;;;;;;;12.43;6.50;;;;;;;;;;5051040;28;20017;-84
2021/06/12 01:37:17;;;;;;;15.45;5.97;;;;;;;;;;5051815;28;20012;-84
2021/06/12 01:39:43;;;;;;;9.23;5.57;;;;;;;;;;5051053;28;20020;-84
2021/06/12 01:42:09;;;;;;;12.48;5.75;;;;;;;;;;5050810;28;20033;-84
2021/06/12 01:44:35;;;;;;;9.98;5.47;;;;;;;;;;5051606;28;20486;-84
2021/06/12 01:47:01;;;;;;;12.30;5.90;;;;;;;;;;5068264;28;20036;-84
2021/06/12 01:49:27;;;;;;;13.95;5.72;;;;;;;;;;5069225;28;20035;-84
2021/06/12 01:51:53;;;;;;;13.27;5.97;;;;;;;;;;5068274;28;20031;-84
2021/06/12 01:54:19;;;;;;;18.20;5.35;;;;;;;;;;5048650;28;20366;-84
2021/06/12 01:56:44;;;;;;;10.93;5.47;;;;;;;;;;5049549;28;20024;-84
2021/06/12 01:59:10;;;;;;;10.35;5.88;;;;;;;;;;5069318;28;20141;-84
2021/06/12 02:01:37;;;;;;;14.32;6.20;;;;;;;;;;5049929;28;20048;-84
2021/06/12 02:04:03;;;;;;;11.77;5.53;;;;;;;;;;5068240;28;20394;-84
2021/06/12 02:06:29;;;;;;;14.43;5.65;;;;;;;;;;5068578;28;20012;-84
2021/06/12 02:08:54;;;;;;;12.20;6.05;;;;;;;;;;5069189;28;20441;-84
2021/06/12 02:11:20;;;;;;;13.45;6.13;;;;;;;;;;5068517;28;20063;-84
2021/06/12 02:13:45;;;;;;;9.73;5.72;;;;;;;;;;5050280;28;20027;-84
2021/06/12 02:16:11;;;;;;;8.73;5.60;;;;;;;;;;5050702;28;20485;-84
2021/06/12 02:18:37;;;;;;;12.63;5.93;;;;;;;;;;5049866;28;20031;-84
2021/06/12 02:21:03;;;;;;;8.48;5.50;;;;;;;;;;5050612;28;20029;-84
2021/06/12 02:23:29;;;;;;;13.52;6.65;;;;;;;;;;5051107;28;20040;-84
2021/06/12 02:25:54;;;;;;;9.00;5.40;;;;;;;;;;5050953;28;20547;-84
2021/06/12 02:28:20;;;;;;;11.18;6.05;;;;;;;;;;5068061;28;20033;-84
2021/06/12 02:30:48;;;;;;;13.00;6.15;;;;;;;;;;5067214;28;20231;-84
2021/06/12 02:33:16;;;;;;;19.65;6.50;;;;;;;;;;5050154;28;20563;-84
2021/06/12 02:35:41;;;;;;;10.85;5.80;;;;;;;;;;5050023;28;20489;-84
2021/06/12 02:38:06;;;;;;;11.50;6.35;;;;;;;;;;5049708;28;20035;-84
2021/06/12 02:40:32;;;;;;;11.40;6.60;;;;;;;;;;5067830;28;20017;-84
2021/06/12 02:42:57;;;;;;;14.75;5.50;;;;;;;;;;5067978;28;20699;-84
2021/06/12 02:45:23;;;;;;;10.15;6.22;;;;;;;;;;5045727;28;20028;-84
2021/06/12 02:47:53;;;;;;;9.07;5.78;;;;;;;;;;5050811;28;20039;-84
2021/06/12 02:50:20;;;;;;;10.27;5.63;;;;;;;;;;5049978;28;20020;-84
2021/06/12 02:52:46;;;;;;;11.55;6.32;;;;;;;;;;5050328;28;20666;-84
2021/06/12 02:55:12;;;;;;;13.85;6.13;;;;;;;;;;5046730;28;20112;-84
2021/06/12 02:57:43;;;;;;;14.95;7.55;;;;;;;;;;5067124;28;20027;-84
2021/06/12 03:00:09;;;;;;;12.70;7.05;;;;;;;;;;5059187;28;20019;-84
2021/06/12 03:02:39;;;;;;;14.80;8.32;;;;;;;;;;5048512;28;20033;-84
2021/06/12 03:05:06;;;;;;;20.23;9.68;;;;;;;;;;5049189;28;20028;-84
2021/06/12 03:07:32;;;;;;;19.92;8.98;;;;;;;;;;5062018;28;20103;-84
2021/06/12 03:09:58;;;;;;;18.50;9.38;;;;;;;;;;5049140;28;20577;-84
2021/06/12 03:12:23;;;;;;;17.33;9.25;;;;;;;;;;5066603;28;20063;-84
2021/06/12 03:14:49;;;;;;;17.73;10.10;;;;;;;;;;5067565;28;20208;-84
2021/06/12 03:17:15;;;;;;;24.08;9.70;;;;;;;;;;5067252;28;20108;-84
2021/06/12 03:19:41;;;;;;;23.05;9.05;;;;;;;;;;5048451;28;20106;-84
2021/06/12 03:22:06;;;;;;;18.33;10.48;;;;;;;;;;5066218;28;20377;-84
2021/06/12 03:24:32;;;;;;;14.32;9.35;;;;;;;;;;5068089;28;20504;-84
2021/06/12 03:26:59;;;;;;;21.77;10.47;;;;;;;;;;5066854;28;20489;-84
2021/06/12 03:29:25;;;;;;;22.33;10.05;;;;;;;;;;5049566;28;20775;-84
2021/06/12 03:31:50;;;;;;;19.65;10.48;;;;;;;;;;5067232;28;20096;-84
2021/06/12 03:34:16;;;;;;;23.23;9.90;;;;;;;;;;5067114;28;20505;-84
2021/06/12 03:36:41;;;;;;;21.80;9.88;;;;;;;;;;5049096;28;20102;-84
2021/06/12 03:39:08;;;;;;;24.00;10.98;;;;;;;;;;5068316;28;20021;-84
2021/06/12 03:41:33;;;;;;;24.90;11.48;;;;;;;;;;5070801;28;20028;-84
2021/06/12 03:43:58;;;;;;;20.35;10.23;;;;;;;;;;5067154;28;20025;-84
2021/06/12 03:46:24;;;;;;;21.90;10.93;;;;;;;;;;5067807;28;20109;-84
2021/06/12 03:48:50;;;;;;;20.90;11.25;;;;;;;;;;5045346;28;20399;-83
2021/06/12 03:51:16;;;;;;;20.92;11.90;;;;;;;;;;5064558;28;20095;-84
2021/06/12 03:53:44;;;;;;;22.75;10.35;;;;;;;;;;5049343;28;20016;-84
2021/06/12 03:56:14;;;;;;;22.70;10.38;;;;;;;;;;5067283;28;20020;-84
2021/06/12 03:58:40;;;;;;;19.33;10.88;;;;;;;;;;5053514;28;20024;-84
2021/06/12 04:01:05;;;;;;;19.67;9.55;;;;;;;;;;5070818;28;20108;-84
2021/06/12 04:03:30;;;;;;;24.58;10.70;;;;;;;;;;5048719;28;20107;-84
2021/06/12 04:05:55;;;;;;;20.53;11.40;;;;;;;;;;5065191;28;20544;-83
2021/06/12 04:08:20;;;;;;;23.80;11.37;;;;;;;;;;5068488;28;20414;-83
2021/06/12 04:10:46;;;;;;;18.85;10.80;;;;;;;;;;5070924;28;20679;-84
2021/06/12 04:13:11;;;;;;;26.10;10.77;;;;;;;;;;5053513;28;20508;-83
2021/06/12 04:15:36;;;;;;;24.00;11.10;;;;;;;;;;5052734;28;20340;-83
2021/06/12 04:18:07;;;;;;;21.87;10.47;;;;;;;;;;5067409;28;20389;-83
2021/06/12 04:20:33;;;;;;;25.15;10.38;;;;;;;;;;5053640;28;20346;-83
2021/06/12 04:22:59;;;;;;;24.00;11.25;;;;;;;;;;5052950;28;20115;-83
2021/06/12 04:25:24;;;;;;;28.15;10.95;;;;;;;;;;5052846;28;20043;-83
2021/06/12 04:27:49;;;;;;;20.80;11.27;;;;;;;;;;5071036;28;20039;-84
2021/06/12 04:30:16;;;;;;;20.77;11.20;;;;;;;;;;5052418;28;20736;-83
2021/06/12 04:32:42;;;;;;;27.25;12.18;;;;;;;;;;5051906;28;20104;-83
2021/06/12 04:35:07;;;;;;;27.42;13.60;;;;;;;;;;5052597;28;20128;-84
2021/06/12 04:37:32;;;;;;;26.80;13.35;;;;;;;;;;5050466;28;20044;-83
2021/06/12 04:39:57;;;;;;;30.63;13.38;;;;;;;;;;5052774;28;20048;-84
2021/06/12 04:42:23;;;;;;;26.10;11.33;;;;;;;;;;5052644;28;20029;-83
2021/06/12 04:44:48;;;;;;;26.20;11.43;;;;;;;;;;5052209;28;20358;-84
2021/06/12 04:47:13;;;;;;;22.92;11.00;;;;;;;;;;5049889;28;20263;-84
2021/06/12 04:49:38;;;;;;;27.67;12.03;;;;;;;;;;5069976;28;20029;-84
2021/06/12 04:52:04;;;;;;;23.20;11.00;;;;;;;;;;5052721;28;20258;-85
2021/06/12 04:54:29;;;;;;;28.42;11.85;;;;;;;;;;5051243;28;20287;-84
2021/06/12 04:56:54;;;;;;;23.73;11.10;;;;;;;;;;5052102;28;20381;-84
2021/06/12 04:59:19;;;;;;;24.60;11.40;;;;;;;;;;5052127;28;20258;-84
2021/06/12 05:01:44;;;;;;;24.50;11.20;;;;;;;;;;5057101;28;20269;-84
2021/06/12 05:04:10;;;;;;;22.13;10.38;;;;;;;;;;5069264;28;20259;-84
2021/06/12 05:06:35;;;;;;;31.30;15.40;;;;;;;;;;5051756;28;20024;-84
2021/06/12 05:09:00;;;;;;;31.17;16.65;;;;;;;;;;5054412;28;20116;-84
2021/06/12 05:11:26;;;;;;;39.72;21.73;;;;;;;;;;5054122;28;20044;-84
2021/06/12 05:13:51;;;;;;;41.42;19.60;;;;;;;;;;5051340;28;20056;-84
2021/06/12 05:16:17;;;;;;;36.08;17.38;;;;;;;;;;5067705;28;20520;-84
2021/06/12 05:18:44;;;;;;;32.30;15.57;;;;;;;;;;5051374;28;20020;-84
2021/06/12 05:21:10;;;;;;;45.78;16.25;;;;;;;;;;5069688;28;20017;-84
2021/06/12 05:23:35;;;;;;;39.05;15.43;;;;;;;;;;5070544;28;20035;-84
2021/06/12 05:26:02;;;;;;;34.63;15.77;;;;;;;;;;5052278;28;20143;-84
2021/06/12 05:28:28;;;;;;;36.58;16.88;;;;;;;;;;5051727;28;20025;-84
2021/06/12 05:30:53;;;;;;;32.30;16.48;;;;;;;;;;5048709;28;20024;-84
2021/06/12 05:33:18;;;;;;;33.20;16.83;;;;;;;;;;5069204;28;20619;-84
2021/06/12 05:35:43;;;;;;;35.13;15.53;;;;;;;;;;5069666;28;20390;-84
2021/06/12 05:38:09;;;;;;;39.63;16.40;;;;;;;;;;5069241;28;20343;-84
2021/06/12 05:40:34;;;;;;;33.85;14.68;;;;;;;;;;5051273;28;20263;-84
2021/06/12 05:42:59;;;;;;;32.47;15.82;;;;;;;;;;5051744;28;20035;-84
2021/06/12 05:45:24;;;;;;;29.07;15.37;;;;;;;;;;5049796;28;20386;-83
2021/06/12 05:47:50;;;;;;;25.90;13.60;;;;;;;;;;5051085;28;20255;-84
2021/06/12 05:50:15;;;;;;;29.50;11.73;;;;;;;;;;5052031;28;20290;-85
2021/06/12 05:52:40;;;;;;;24.07;10.47;;;;;;;;;;5051186;28;20024;-83
2021/06/12 05:55:06;;;;;;;20.90;10.77;;;;;;;;;;5050545;28;20302;-84
2021/06/12 05:57:31;;;;;;;28.13;12.45;;;;;;;;;;5050235;28;20277;-83
2021/06/12 05:59:56;;;;;;;23.83;10.82;;;;;;;;;;5068579;28;20023;-85
2021/06/12 06:02:21;;;;;;;18.67;9.63;;;;;;;;;;5064114;23;20045;-66
2021/06/12 06:04:47;;;;;;;21.97;9.57;;;;;;;;;;5065275;28;20254;-65
2021/06/12 06:07:12;;;;;;;20.50;9.13;;;;;;;;;;5071027;28;20063;-66
2021/06/12 06:09:38;;;;;;;19.47;8.87;;;;;;;;;;5051594;28;20052;-66
2021/06/12 06:12:03;;;;;;;20.90;8.30;;;;;;;;;;5050834;28;20013;-66
2021/06/12 06:14:28;;;;;;;15.25;7.65;;;;;;;;;;5051552;28;20629;-66
2021/06/12 06:16:53;;;;;;;13.07;7.50;;;;;;;;;;5050961;28;20528;-65
2021/06/12 06:19:19;;;;;;;13.95;7.30;;;;;;;;;;5050981;28;20267;-66
2021/06/12 06:21:44;;;;;;;12.15;7.13;;;;;;;;;;5051132;28;20029;-66
2021/06/12 06:24:09;;;;;;;12.00;5.73;;;;;;;;;;5033136;28;20021;-66
2021/06/12 06:26:34;;;;;;;13.60;6.40;;;;;;;;;;5032232;28;20043;-65
2021/06/12 06:28:59;;;;;;;14.73;6.17;;;;;;;;;;5050910;28;20267;-66
2021/06/12 06:31:25;;;;;;;10.40;5.80;;;;;;;;;;5050209;28;20264;-65
2021/06/12 06:33:50;;;;;;;9.50;5.80;;;;;;;;;;5050520;28;20283;-66
2021/06/12 06:36:15;;;;;;;13.17;5.33;;;;;;;;;;5050925;28;20103;-65
2021/06/12 06:38:41;;;;;;;11.60;6.60;;;;;;;;;;5032673;28;20256;-66
2021/06/12 06:41:06;;;;;;;15.13;8.38;;;;;;;;;;5047311;28;20107;-67
2021/06/12 06:43:31;;;;;;;9.60;6.60;;;;;;;;;;5044792;28;20032;-67
2021/06/12 06:45:56;;;;;;;11.33;7.07;;;;;;;;;;5050703;28;20021;-65
2021/06/12 06:48:21;;;;;;;10.37;6.37;;;;;;;;;;5050484;28;20039;-67
2021/06/12 06:50:47;;;;;;;14.03;5.70;;;;;;;;;;5044110;28;20013;-67
2021/06/12 06:53:12;;;;;;;14.40;6.65;;;;;;;;;;5041143;28;20661;-66
2021/06/12 06:55:37;;;;;;;17.50;7.85;;;;;;;;;;5045696;28;20016;-66
2021/06/12 06:58:03;;;;;;;14.10;8.20;;;;;;;;;;5047611;28;20032;-66
2021/06/12 07:00:29;;;;;;;14.23;8.50;;;;;;;;;;5045015;28;20025;-66
2021/06/12 07:02:54;;;;;;;6.70;5.35;;;;;;;;;;5048806;28;20025;-66
2021/06/12 07:05:20;;;;;;;8.50;4.53;;;;;;;;;;5048053;28;20544;-66
2021/06/12 07:07:45;;;;;;;7.85;4.57;;;;;;;;;;5037490;28;20029;-66
2021/06/12 07:10:10;;;;;;;6.60;4.35;;;;;;;;;;5042813;28;20774;-66
2021/06/12 07:12:36;;;;;;;9.25;6.03;;;;;;;;;;5036565;28;20030;-66
2021/06/12 07:15:01;;;;;;;16.80;10.40;;;;;;;;;;5038521;28;20178;-66
2021/06/12 07:17:27;;;;;;;13.20;10.93;;;;;;;;;;5044775;28;20045;-66
2021/06/12 07:19:52;;;;;;;20.27;9.93;;;;;;;;;;5048046;28;20282;-68
2021/06/12 07:22:17;;;;;;;13.25;7.88;;;;;;;;;;5048072;28;20096;-66
2021/06/12 07:24:42;;;;;;;12.10;7.60;;;;;;;;;;5047175;28;20044;-66
2021/06/12 07:27:08;;;;;;;10.48;7.80;;;;;;;;;;5045826;28;21082;-66
2021/06/12 07:29:33;;;;;;;11.65;6.43;;;;;;;;;;5032077;28;20096;-66
2021/06/12 07:31:58;;;;;;;8.75;5.85;;;;;;;;;;5046805;28;20051;-66
2021/06/12 07:34:24;;;;;;;12.88;5.95;;;;;;;;;;5047702;28;20558;-66
2021/06/12 07:36:49;;;;;;;9.68;6.20;;;;;;;;;;5046186;28;20021;-66
2021/06/12 07:39:14;;;;;;;8.03;4.93;;;;;;;;;;5039704;28;20022;-66
2021/06/12 07:41:40;;;;;;;7.93;4.85;;;;;;;;;;5045895;28;20271;-66
2021/06/12 07:44:05;;;;;;;12.60;5.13;;;;;;;;;;5046693;28;20028;-66
2021/06/12 07:46:31;;;;;;;11.07;5.65;;;;;;;;;;5047369;28;20544;-66
2021/06/12 07:48:57;;;;;;;11.98;5.45;;;;;;;;;;5047514;28;20415;-66
2021/06/12 07:51:22;;;;;;;8.43;5.00;;;;;;;;;;5030232;28;20025;-66
2021/06/12 07:53:47;;;;;;;12.18;5.80;;;;;;;;;;5046080;28;20033;-66
2021/06/12 07:56:12;;;;;;;9.90;5.28;;;;;;;;;;5047048;28;20021;-66
2021/06/12 07:58:38;;;;;;;9.83;5.50;;;;;;;;;;5047161;28;20029;-66
2021/06/12 08:01:03;;;;;;;8.97;5.60;;;;;;;;;;5047550;28;20678;-66
2021/06/12 08:03:29;;;;;;;14.67;5.77;;;;;;;;;;5047421;28;20307;-66
2021/06/12 08:05:54;;;;;;;14.48;6.28;;;;;;;;;;5029125;28;20278;-66
2021/06/12 08:08:19;;;;;;;13.95;7.18;;;;;;;;;;5020149;28;20040;-66
2021/06/12 08:10:45;;;;;;;11.93;7.88;;;;;;;;;;5041574;28;20093;-66
2021/06/12 08:13:10;;;;;;;12.10;7.93;;;;;;;;;;5046491;28;20025;-66
2021/06/12 08:15:36;;;;;;;19.05;11.85;;;;;;;;;;5047837;28;20549;-66
2021/06/12 08:18:01;;;;;;;18.33;12.82;;;;;;;;;;5041034;28;20479;-66
2021/06/12 08:20:27;;;;;;;26.47;12.50;;;;;;;;;;5038819;28;20100;-66
2021/06/12 08:22:52;;;;;;;23.17;14.10;;;;;;;;;;5040671;28;20272;-66
2021/06/12 08:25:18;;;;;;;20.70;14.03;;;;;;;;;;5040250;28;20078;-66
2021/06/12 08:27:43;;;;;;;20.42;13.82;;;;;;;;;;5042748;28;20386;-66
2021/06/12 08:30:09;;;;;;;19.35;12.90;;;;;;;;;;5047685;28;20073;-66
2021/06/12 08:32:34;;;;;;;18.90;12.30;;;;;;;;;;5029397;28;20033;-66
2021/06/12 08:35:00;;;;;;;19.45;12.90;;;;;;;;;;5044093;28;20100;-66
2021/06/12 08:37:25;;;;;;;18.10;12.82;;;;;;;;;;5047024;28;20107;-66
2021/06/12 08:39:52;;;;;;;25.23;11.90;;;;;;;;;;5038942;28;20029;-66
2021/06/12 08:42:17;;;;;;;17.25;12.75;;;;;;;;;;5042491;28;20450;-66
2021/06/12 08:44:43;;;;;;;24.95;13.68;;;;;;;;;;5049100;28;20017;-66
2021/06/12 08:47:08;;;;;;;21.70;13.52;;;;;;;;;;5048717;28;20372;-66
2021/06/12 08:49:34;;;;;;;19.38;13.90;;;;;;;;;;5048586;28;20032;-66
2021/06/12 08:51:59;;;;;;;24.30;12.93;;;;;;;;;;5049093;28;20033;-66
2021/06/12 08:54:26;;;;;;;19.63;12.60;;;;;;;;;;5049256;28;20280;-66
2021/06/12 08:56:51;;;;;;;25.02;14.27;;;;;;;;;;5052195;28;20278;-66
2021/06/12 08:59:16;;;;;;;21.83;14.10;;;;;;;;;;5052986;28;20017;-66
2021/06/12 09:01:42;;;;;;;24.38;15.10;;;;;;;;;;5052209;28;20029;-65
2021/06/12 09:04:07;;;;;;;19.17;15.70;;;;;;;;;;5044415;28;20120;-66
2021/06/12 09:06:33;;;;;;;28.80;16.05;;;;;;;;;;5038124;28;20017;-66
2021/06/12 09:08:58;;;;;;;19.73;14.55;;;;;;;;;;5050822;28;20398;-66
2021/06/12 09:11:24;;;;;;;20.23;14.63;;;;;;;;;;5053055;28;20070;-66
2021/06/12 09:13:54;;;;;;;27.15;15.63;;;;;;;;;;5052270;28;20112;-66
2021/06/12 09:16:21;;;;;;;21.65;14.43;;;;;;;;;;5051888;28;20062;-65
2021/06/12 09:18:47;;;;;;;21.15;15.48;;;;;;;;;;5051555;28;20017;-66
2021/06/12 09:21:22;;;;;;;24.42;15.95;;;;;;;;;;5050846;28;20010;-66
2021/06/12 09:23:47;;;;;;;30.17;18.65;;;;;;;;;;5039110;28;20021;-66
2021/06/12 09:26:13;;;;;;;29.27;19.37;;;;;;;;;;5052191;28;20116;-66
2021/06/12 09:28:54;;;;;;;28.05;19.30;;;;;;;;;;5051123;28;20531;-65
2021/06/12 09:31:24;;;;;;;31.63;17.73;;;;;;;;;;5052296;28;20029;-66
2021/06/12 09:33:49;;;;;;;29.63;18.15;;;;;;;;;;5051733;28;20021;-66
2021/06/12 09:36:14;;;;;;;23.33;17.20;;;;;;;;;;5043972;28;20018;-66
2021/06/12 09:38:41;;;;;;;25.98;16.67;;;;;;;;;;5042869;28;20060;-66
2021/06/12 09:41:23;;;;;;;27.17;16.75;;;;;;;;;;5049149;28;20024;-67
2021/06/12 09:43:48;;;;;;;26.48;17.92;;;;;;;;;;5048302;28;20505;-66
2021/06/12 09:46:29;;;;;;;24.58;16.10;;;;;;;;;;5036143;28;20037;-67
2021/06/12 09:48:54;;;;;;;28.90;17.00;;;;;;;;;;5048520;28;20445;-67
2021/06/12 09:51:19;;;;;;;23.83;16.90;;;;;;;;;;5026565;28;20025;-65
2021/06/12 09:53:48;;;;;;;23.17;16.80;;;;;;;;;;5037428;28;20074;-65
2021/06/12 09:56:13;;;;;;;33.17;15.77;;;;;;;;;;5039052;28;20120;-65
2021/06/12 09:58:39;;;;;;;24.65;15.90;;;;;;;;;;5049902;28;20112;-65
2021/06/12 10:01:11;;;;;;;33.40;18.00;;;;;;;;;;5049357;28;20021;-65
2021/06/12 10:03:36;;;;;;;32.33;19.45;;;;;;;;;;5049724;28;20354;-67
2021/06/12 10:06:20;;;;;;;27.70;17.67;;;;;;;;;;5049143;28;20107;-65
2021/06/12 10:08:47;;;;;;;24.33;14.73;;;;;;;;;;5045638;28;20043;-65
2021/06/12 10:11:12;;;;;;;24.75;17.13;;;;;;;;;;5041234;28;20030;-65
2021/06/12 10:13:38;;;;;;;22.58;16.05;;;;;;;;;;5046422;28;20040;-67
2021/06/12 10:16:04;;;;;;;23.20;16.90;;;;;;;;;;5039488;28;20021;-65
2021/06/12 10:18:30;;;;;;;28.98;15.77;;;;;;;;;;5045270;28;20055;-66
2021/06/12 10:20:55;;;;;;;28.58;16.77;;;;;;;;;;5046681;28;20013;-66
2021/06/12 10:23:20;;;;;;;21.50;16.65;;;;;;;;;;5042511;28;20491;-66
2021/06/12 10:25:46;;;;;;;25.88;14.73;;;;;;;;;;5045899;28;20063;-65
2021/06/12 10:28:11;;;;;;;24.85;14.95;;;;;;;;;;5044604;28;20024;-65
2021/06/12 10:30:37;;;;;;;21.92;15.88;;;;;;;;;;5044099;28;20052;-66
2021/06/12 10:33:02;;;;;;;24.25;14.77;;;;;;;;;;5049250;28;20035;-66
2021/06/12 10:35:28;;;;;;;23.13;15.80;;;;;;;;;;5037443;28;20095;-66
2021/06/12 10:37:56;;;;;;;25.17;15.68;;;;;;;;;;5045483;28;20430;-65
2021/06/12 10:40:35;;;;;;;26.08;16.10;;;;;;;;;;5051287;28;20091;-65
2021/06/12 10:43:11;;;;;;;19.63;14.02;;;;;;;;;;5051009;28;20100;-66
2021/06/12 10:45:36;;;;;;;27.65;15.82;;;;;;;;;;5050857;28;20025;-66
2021/06/12 10:48:01;;;;;;;23.50;16.30;;;;;;;;;;5046348;28;20029;-66
2021/06/12 10:50:27;;;;;;;20.98;14.15;;;;;;;;;;5043058;28;20024;-66
2021/06/12 10:52:52;;;;;;;20.70;14.93;;;;;;;;;;5041048;28;20051;-66
2021/06/12 10:55:36;;;;;;;20.02;12.65;;;;;;;;;;5039780;28;20139;-66
2021/06/12 10:58:01;;;;;;;22.20;12.98;;;;;;;;;;5046038;28;20028;-66
2021/06/12 11:00:27;;;;;;;18.93;12.40;;;;;;;;;;5035782;28;20017;-66
2021/06/12 11:02:55;;;;;;;24.47;14.57;;;;;;;;;;5043055;28;20481;-66
2021/06/12 11:05:27;;;;;;;19.27;13.85;;;;;;;;;;5022853;28;20362;-66
2021/06/12 11:08:13;;;;;;;20.98;14.13;;;;;;;;;;5035998;28;20357;-66
2021/06/12 11:10:38;;;;;;;22.30;14.43;;;;;;;;;;5038714;28;20048;-66
2021/06/12 11:13:18;;;;;;;20.97;13.40;;;;;;;;;;5062290;22;20416;-90
2021/06/12 11:15:45;;;;;;;29.33;13.88;;;;;;;;;;5039260;28;20275;-87
2021/06/12 11:18:23;;;;;;;20.52;13.40;;;;;;;;;;5061401;28;20081;-89
2021/06/12 11:21:10;;;;;;;25.77;14.07;;;;;;;;;;5044106;28;20047;-91
2021/06/12 11:23:45;;;;;;;25.02;14.70;;;;;;;;;;5051793;28;20029;-90
2021/06/12 11:26:28;;;;;;;25.40;15.98;;;;;;;;;;5071110;28;20024;-89
2021/06/12 11:29:14;;;;;;;26.38;16.10;;;;;;;;;;5050960;28;20120;-88
2021/06/12 11:31:48;;;;;;;27.38;16.63;;;;;;;;;;5045653;28;20036;-91
2021/06/12 11:34:23;;;;;;;30.52;15.27;;;;;;;;;;5056797;28;20059;-89
2021/06/12 11:37:31;;;;;;;;;;;;;;;;;;;;;
2021/06/12 11:43:03;;;;;;;27.20;13.98;;;;;;;;;;5032940;28;20057;-90
2021/06/12 11:45:54;;;;;;;33.80;14.52;;;;;;;;;;5052374;28;20108;-92
2021/06/12 11:48:46;;;;;;;26.02;13.80;;;;;;;;;;5047245;28;20119;-90
2021/06/12 11:51:25;;;;;;;26.77;12.70;;;;;;;;;;5044995;28;20432;-90
2021/06/12 11:54:03;;;;;;;21.80;13.50;;;;;;;;;;5077784;28;20048;-90
2021/06/12 11:56:47;;;;;;;26.25;14.25;;;;;;;;;;5075346;28;20076;-90
2021/06/12 11:59:17;;;;;;;21.17;13.20;;;;;;;;;;5076842;28;20036;-89
2021/06/12 12:01:42;;;;;;;;;;;;;;;;;;5061929;23;20042;-65
2021/06/12 12:04:10;;;;;;;25.60;14.55;;;;;;;;;;5017905;28;20329;-66
2021/06/12 12:06:36;;;;;;;24.38;13.65;;;;;;;;;;5009589;28;20496;-66
2021/06/12 12:09:02;;;;;;;23.92;14.40;;;;;;;;;;5010240;28;20030;-66
2021/06/12 12:11:27;;;;;;;20.25;13.38;;;;;;;;;;5010228;28;20100;-67
2021/06/12 12:14:00;;;;;;;26.55;16.38;;;;;;;;;;5009832;28;20476;-66
2021/06/12 12:16:25;;;;;;;27.65;15.15;;;;;;;;;;5049969;23;20045;-85
2021/06/12 12:18:52;;;;;;;26.42;14.65;;;;;;;;;;5041988;28;20103;-85
2021/06/12 12:21:37;;;;;;;25.70;15.23;;;;;;;;;;5063747;28;20025;-86
2021/06/12 12:24:04;;;;;;;31.95;16.02;;;;;;;;;;5050399;28;20361;-85
2021/06/12 12:26:29;;;;;;;30.50;17.58;;;;;;;;;;5051073;28;20187;-87
2021/06/12 12:28:58;;;;;;;26.95;16.25;;;;;;;;;;5051707;28;20079;-89
2021/06/12 12:31:24;;;;;;;30.40;16.63;;;;;;;;;;5058610;28;20024;-83
2021/06/12 12:33:50;;;;;;;31.92;15.88;;;;;;;;;;5053806;28;20025;-86
2021/06/12 12:36:16;;;;;;;31.02;16.42;;;;;;;;;;5066754;28;20019;-86
2021/06/12 12:38:52;;;;;;;28.23;16.15;;;;;;;;;;5052454;28;20039;-88
2021/06/12 12:41:17;;;;;;;28.85;14.32;;;;;;;;;;5070598;28;20031;-86
2021/06/12 12:43:43;;;;;;;27.47;17.23;;;;;;;;;;5072445;28;20029;-88
2021/06/12 12:46:09;;;;;;;25.45;16.40;;;;;;;;;;5054806;28;21004;-87
2021/06/12 12:48:37;;;;;;;26.73;16.38;;;;;;;;;;5055182;28;20021;-86
2021/06/12 12:51:03;;;;;;;32.70;17.77;;;;;;;;;;5071922;28;20025;-85
2021/06/12 12:53:36;;;;;;;28.05;16.08;;;;;;;;;;5073439;28;20047;-86
2021/06/12 12:56:08;;;;;;;23.02;15.18;;;;;;;;;;5064536;28;20016;-86
2021/06/12 12:58:35;;;;;;;25.45;15.57;;;;;;;;;;5063254;28;20024;-86
2021/06/12 13:01:06;;;;;;;26.23;17.83;;;;;;;;;;5080703;28;20016;-87
2021/06/12 13:03:42;;;;;;;25.90;15.45;;;;;;;;;;5059112;28;20417;-89
2021/06/12 13:06:26;;;;;;;25.33;15.60;;;;;;;;;;5063494;28;20020;-88
2021/06/12 13:09:04;;;;;;;23.27;14.82;;;;;;;;;;5073945;28;20033;-85
2021/06/12 13:11:29;;;;;;;28.65;14.40;;;;;;;;;;5063235;28;20033;-90
2021/06/12 13:13:55;;;;;;;25.33;14.23;;;;;;;;;;5063344;28;20448;-85
2021/06/12 13:16:21;;;;;;;25.57;13.00;;;;;;;;;;5047311;28;20059;-87
2021/06/12 13:18:46;;;;;;;20.05;13.23;;;;;;;;;;5063370;28;20289;-88
2021/06/12 13:21:14;;;;;;;24.00;13.40;;;;;;;;;;5059655;28;20048;-85
2021/06/12 13:23:40;;;;;;;22.55;11.30;;;;;;;;;;5073965;28;20031;-88
2021/06/12 13:26:14;;;;;;;16.27;9.52;;;;;;;;;;5072794;28;20424;-86
2021/06/12 13:28:39;;;;;;;23.92;11.68;;;;;;;;;;5055432;28;20074;-89
2021/06/12 13:31:15;;;;;;;18.25;9.35;;;;;;;;;;5056358;28;20020;-87
2021/06/12 13:33:40;;;;;;;17.73;9.60;;;;;;;;;;5061122;28;20036;-85
2021/06/12 13:36:09;;;;;;;15.65;10.05;;;;;;;;;;5079873;28;20017;-86
2021/06/12 13:38:36;;;;;;;14.50;8.70;;;;;;;;;;5058414;28;20098;-89
2021/06/12 13:41:02;;;;;;;13.07;6.95;;;;;;;;;;5072244;28;20017;-85
2021/06/12 13:43:29;;;;;;;8.27;5.38;;;;;;;;;;5073654;28;20044;-85
2021/06/12 13:45:57;;;;;;;9.35;3.83;;;;;;;;;;5052553;28;20029;-85
2021/06/12 13:48:23;;;;;;;10.45;3.83;;;;;;;;;;5041056;28;20025;-88
2021/06/12 13:50:49;;;;;;;13.38;3.67;;;;;;;;;;5070739;28;20034;-85
2021/06/12 13:53:14;;;;;;;9.68;3.67;;;;;;;;;;5070985;28;20024;-85
2021/06/12 13:55:40;;;;;;;10.45;3.45;;;;;;;;;;5070968;28;20028;-86
2021/06/12 13:58:06;;;;;;;10.02;3.30;;;;;;;;;;5051739;28;20071;-86
2021/06/12 14:00:31;;;;;;;6.95;3.70;;;;;;;;;;5052872;28;20020;-89
2021/06/12 14:02:56;;;;;;;8.83;3.13;;;;;;;;;;5053030;28;20111;-85
2021/06/12 14:05:21;;;;;;;9.82;3.40;;;;;;;;;;5052898;28;20311;-87
2021/06/12 14:07:47;;;;;;;10.15;3.80;;;;;;;;;;5053031;28;20054;-87
2021/06/12 14:10:12;;;;;;;5.73;2.87;;;;;;;;;;5074752;28;20062;-86
2021/06/12 14:12:38;;;;;;;11.52;2.97;;;;;;;;;;5058070;28;20690;-87
2021/06/12 14:15:04;;;;;;;12.90;3.15;;;;;;;;;;5056587;28;20020;-86
2021/06/12 14:17:29;;;;;;;10.77;3.88;;;;;;;;;;5074189;28;20477;-88
2021/06/12 14:19:55;;;;;;;10.20;2.95;;;;;;;;;;5074428;28;20047;-88
2021/06/12 14:22:20;;;;;;;12.98;3.33;;;;;;;;;;5056498;28;20486;-85
2021/06/12 14:24:45;;;;;;;11.63;3.60;;;;;;;;;;5056558;28;20012;-88
2021/06/12 14:27:10;;;;;;;13.18;3.60;;;;;;;;;;5054232;28;20271;-89
2021/06/12 14:29:37;;;;;;;11.07;3.28;;;;;;;;;;5052646;28;20505;-87